Aeroporto :
LOGIN :

Iscrizione | Disclaimer

   EN    FR    IT 

 










Sommario :    VFR   VFR Marginale   IFR   IFR Intensivo   IFR Molto Intensivo
Visibilità : 
Base nubi : 
>= 8 km
>= 3000ft
5 / 8 km
1000 / 3000 ft
1500m / 5 km
500 / 1000 ft
800 / 1500m
200 / 500 ft
< 800m
< 200 ft
Simboli :   Temporali  Nebbia  Neve Forte  Precipitazioni Forti  Vento > 20 kt
SIGMETs :   Varie  Temporali  Ghiacco  Turbolenza  Onda orograficha  Ceneri Vulcaniche






- Altitudine del aeroporto : 313 ft


LFQA - Reims-Prunay

ULTIMO METAR :
  • 221630Z AUTO 24011KT 9999 OVC027 11/07 Q1026

METARs OBSOLETI :
  • 221600Z AUTO 24011KT 9999 OVC028 12/06 Q1026
  • 221530Z AUTO 24010KT 220V280 9999 OVC029 12/06 Q1026
  • 221500Z AUTO 25007KT 200V290 9999 BKN029 OVC045 12/06 Q1026
  • 221430Z AUTO 22006KT 180V250 9999 OVC029 11/06 Q1026
  • 221400Z AUTO 24005KT 200V280 9999 -RA OVC032 11/05 Q1026
  • 221330Z AUTO 22007KT 190V260 9999 FEW035 OVC100 11/05 Q1026

TAF N/A



MetMap, La meteo Aeronautica in un colpo d'occhio ! - Copyright ORBIFLY Dicembre 2007 - Disclaimer

ORBIFLY MET'MAP TEAM :

Programmazione e sviluppo : Alexandra Zaïnal
Concezione : Baudouin d'Aumeries
Aiuto per la programmazione : Marc-Olivier Méhu
Supporto tecnico e logistico : Manuel Goepfert
Aiuto per la traduzione : Arnaldo La Scala

Contatto : metmap@orbifly.com




FONTI E CREDITI :

   NOAA